createdAt,value
2022-12-23T00:00:31.657Z,14.23
2022-12-23T00:03:19.310Z,12.35
2022-12-23T00:05:46.383Z,15.30
2022-12-23T00:08:13.776Z,15.75
2022-12-23T00:10:41.499Z,13.75
2022-12-23T00:13:29.460Z,12.93
2022-12-23T00:16:07.395Z,13.70
2022-12-23T00:18:35.351Z,13.18
2022-12-23T00:21:08.918Z,15.25
2022-12-23T00:23:38.910Z,13.50
2022-12-23T00:26:06.990Z,13.10
2022-12-23T00:28:34.370Z,13.20
2022-12-23T00:31:04.619Z,12.45
2022-12-23T00:33:37.002Z,14.68
2022-12-23T00:36:16.995Z,13.02
2022-12-23T00:39:03.429Z,15.00
2022-12-23T00:41:49.678Z,14.98
2022-12-23T00:44:17.085Z,13.90
2022-12-23T00:46:44.278Z,14.68
2022-12-23T00:49:32.493Z,15.30
2022-12-23T00:52:00.615Z,10.32
2022-12-23T00:54:29.047Z,14.23
2022-12-23T00:56:57.278Z,15.13
2022-12-23T00:59:24.869Z,13.43
2022-12-23T01:02:10.488Z,10.93
2022-12-23T01:04:56.425Z,14.02
2022-12-23T01:07:24.257Z,14.07
2022-12-23T01:09:51.592Z,11.95
2022-12-23T01:12:18.995Z,12.77
2022-12-23T01:14:46.630Z,13.88
2022-12-23T01:17:13.844Z,12.00
2022-12-23T01:19:41.229Z,15.57
2022-12-23T01:22:08.522Z,12.98
2022-12-23T01:24:35.792Z,13.30
2022-12-23T01:27:02.846Z,12.95
2022-12-23T01:29:30.403Z,15.43
2022-12-23T01:31:57.651Z,13.43
2022-12-23T01:34:28.485Z,11.93
2022-12-23T01:36:58.157Z,14.15
2022-12-23T01:39:25.584Z,14.38
2022-12-23T01:42:11.228Z,12.73
2022-12-23T01:45:00.886Z,13.98
2022-12-23T01:47:34.130Z,12.75
2022-12-23T01:50:09.735Z,13.65
2022-12-23T01:53:06.935Z,13.65
2022-12-23T01:55:59.841Z,12.82
2022-12-23T01:58:32.339Z,14.73
2022-12-23T02:01:18.677Z,13.13
2022-12-23T02:03:48.146Z,13.93
2022-12-23T02:06:37.181Z,12.73
2022-12-23T02:09:17.798Z,13.50
2022-12-23T02:11:54.223Z,11.75
2022-12-23T02:15:14.211Z,12.63
2022-12-23T02:17:48.089Z,13.13
2022-12-23T02:21:06.182Z,13.52
2022-12-23T02:24:01.939Z,13.18
2022-12-23T02:26:53.916Z,14.82
2022-12-23T02:29:21.279Z,13.27
2022-12-23T02:31:58.481Z,13.95
2022-12-23T02:35:05.139Z,15.95
2022-12-23T02:37:44.349Z,16.13
2022-12-23T02:41:01.299Z,13.93
2022-12-23T02:44:00.586Z,13.98
2022-12-23T02:46:31.059Z,15.02
2022-12-23T02:49:15.372Z,13.52
2022-12-23T02:51:48.079Z,15.13
2022-12-23T02:54:21.138Z,14.27
2022-12-23T02:56:51.911Z,15.18
2022-12-23T02:59:23.862Z,15.48
2022-12-23T03:01:53.382Z,15.25
2022-12-23T03:04:21.613Z,16.73
2022-12-23T03:06:53.495Z,15.48
2022-12-23T03:09:33.950Z,13.38
2022-12-23T03:12:20.959Z,14.50
2022-12-23T03:15:20.523Z,15.40
2022-12-23T03:17:58.006Z,13.25
2022-12-23T03:20:32.486Z,15.73
2022-12-23T03:23:06.177Z,14.15
2022-12-23T03:25:40.709Z,16.08
2022-12-23T03:28:24.069Z,15.45
2022-12-23T03:31:00.292Z,13.43
2022-12-23T03:33:44.865Z,15.43
2022-12-23T03:36:37.036Z,15.35
2022-12-23T03:39:10.285Z,16.38
2022-12-23T03:41:43.831Z,14.77
2022-12-23T03:44:18.663Z,14.13
2022-12-23T03:47:14.894Z,14.48
2022-12-23T03:49:48.263Z,14.57
2022-12-23T03:52:21.643Z,14.30
2022-12-23T03:54:56.077Z,15.80
2022-12-23T03:57:28.897Z,16.13
2022-12-23T03:59:56.481Z,13.55
2022-12-23T04:02:54.107Z,15.40
2022-12-23T04:05:33.389Z,15.07
2022-12-23T04:08:09.360Z,16.42
2022-12-23T04:10:37.271Z,15.55
2022-12-23T04:13:04.384Z,12.88
2022-12-23T04:15:32.006Z,15.88
2022-12-23T04:17:59.172Z,13.43
2022-12-23T04:20:26.635Z,13.45
2022-12-23T04:22:53.612Z,14.57
2022-12-23T04:25:23.240Z,17.38
2022-12-23T04:27:52.193Z,15.93
2022-12-23T04:30:19.601Z,15.73
2022-12-23T04:32:46.655Z,14.88
2022-12-23T04:35:14.266Z,13.98
2022-12-23T04:37:41.273Z,14.43
2022-12-23T04:40:10.210Z,15.38
2022-12-23T04:42:37.338Z,17.27
2022-12-23T04:45:05.433Z,17.92
2022-12-23T04:47:32.430Z,15.10
2022-12-23T04:49:59.931Z,13.40
2022-12-23T04:52:27.393Z,15.10
2022-12-23T04:54:55.193Z,13.70
2022-12-23T04:57:22.361Z,13.60
2022-12-23T04:59:50.115Z,13.10
2022-12-23T05:02:18.541Z,13.07
2022-12-23T05:04:47.549Z,13.82
2022-12-23T05:07:14.933Z,14.75
2022-12-23T05:09:42.335Z,14.18
2022-12-23T05:12:09.404Z,11.50
2022-12-23T05:14:37.416Z,16.60
2022-12-23T05:17:07.984Z,15.02
2022-12-23T05:19:35.755Z,32.72
2022-12-23T05:22:02.760Z,20.83
2022-12-23T05:24:30.174Z,18.17
2022-12-23T05:27:00.155Z,16.05
2022-12-23T05:29:35.854Z,16.95
2022-12-23T05:32:03.026Z,12.23
2022-12-23T05:34:30.785Z,14.55
2022-12-23T05:36:58.136Z,14.93
2022-12-23T05:39:25.651Z,15.10
2022-12-23T05:41:52.853Z,16.80
2022-12-23T05:44:20.915Z,15.60
2022-12-23T05:46:47.992Z,14.18
2022-12-23T05:49:15.406Z,12.18
2022-12-23T05:51:43.397Z,17.25
2022-12-23T05:54:10.917Z,14.88
2022-12-23T05:56:37.982Z,17.10
2022-12-23T05:59:05.418Z,14.48
2022-12-23T06:01:34.603Z,15.60
2022-12-23T06:04:02.417Z,16.58
2022-12-23T06:06:29.653Z,16.17
2022-12-23T06:08:59.770Z,12.73
2022-12-23T06:11:28.803Z,10.02
2022-12-23T06:13:57.397Z,17.88
2022-12-23T06:16:25.107Z,13.48
2022-12-23T06:18:56.611Z,17.10
2022-12-23T06:21:25.599Z,15.95
2022-12-23T06:23:53.325Z,16.88
2022-12-23T06:26:20.915Z,16.17
2022-12-23T06:28:50.085Z,15.75
2022-12-23T06:31:21.359Z,14.80
2022-12-23T06:34:08.652Z,16.75
2022-12-23T06:36:38.121Z,16.35
2022-12-23T06:39:20.931Z,15.98
2022-12-23T06:41:50.745Z,16.38
2022-12-23T06:44:19.980Z,18.17
2022-12-23T06:46:49.107Z,15.43
2022-12-23T06:49:16.736Z,16.38
2022-12-23T06:51:46.540Z,17.13
2022-12-23T06:54:15.648Z,17.95
2022-12-23T06:56:45.222Z,18.33
2022-12-23T06:59:13.496Z,16.17
2022-12-23T07:01:40.860Z,15.75
2022-12-23T07:04:11.509Z,16.52
2022-12-23T07:06:43.368Z,15.63
2022-12-23T07:09:15.404Z,14.80
2022-12-23T07:11:42.342Z,17.45
2022-12-23T07:14:10.367Z,19.50
2022-12-23T07:16:37.692Z,20.00
2022-12-23T07:19:05.265Z,15.77
2022-12-23T07:21:40.314Z,17.27
2022-12-23T07:24:22.839Z,16.27
2022-12-23T07:26:54.518Z,17.55
2022-12-23T07:29:21.953Z,15.38
2022-12-23T07:31:49.490Z,15.48
2022-12-23T07:34:16.947Z,17.67
2022-12-23T07:36:43.925Z,14.95
2022-12-23T07:39:11.274Z,15.60
2022-12-23T07:41:38.497Z,17.92
2022-12-23T07:44:06.301Z,18.20
2022-12-23T07:46:36.790Z,18.27
2022-12-23T07:51:49.835Z,16.95
2022-12-23T07:54:43.025Z,17.73
2022-12-23T07:57:13.516Z,17.85
2022-12-23T07:59:44.535Z,16.40
2022-12-23T08:05:12.570Z,16.55
2022-12-23T08:10:40.254Z,15.80
2022-12-23T08:13:10.015Z,18.00
2022-12-23T08:15:40.502Z,17.65
2022-12-23T08:18:13.399Z,16.73
2022-12-23T08:20:40.960Z,17.30
2022-12-23T08:23:13.249Z,15.50
2022-12-23T08:25:41.126Z,16.80
2022-12-23T08:28:17.211Z,14.85
2022-12-23T08:30:53.789Z,17.23
2022-12-23T08:33:28.508Z,18.95
2022-12-23T08:36:04.995Z,16.20
2022-12-23T08:41:21.828Z,13.20
2022-12-23T08:43:49.776Z,15.75
2022-12-23T08:46:18.879Z,20.17
2022-12-23T08:48:49.363Z,19.33
2022-12-23T08:51:22.391Z,19.77
2022-12-23T08:54:20.422Z,19.05
2022-12-23T08:56:48.011Z,18.33
2022-12-23T08:59:19.851Z,17.27
2022-12-23T09:01:51.887Z,16.40
2022-12-23T09:09:49.526Z,18.17
2022-12-23T09:12:17.161Z,16.55
2022-12-23T09:14:47.766Z,18.92
2022-12-23T09:17:17.842Z,17.88
2022-12-23T09:19:48.742Z,16.55
2022-12-23T09:22:22.633Z,19.70
2022-12-23T09:24:49.604Z,16.40
2022-12-23T09:27:17.227Z,16.08
2022-12-23T09:29:44.288Z,17.02
2022-12-23T09:32:11.621Z,17.35
2022-12-23T09:34:42.119Z,16.20
2022-12-23T09:37:09.534Z,17.65
2022-12-23T09:39:36.687Z,17.05
2022-12-23T09:42:19.635Z,16.35
2022-12-23T09:45:03.157Z,17.52
2022-12-23T09:47:35.491Z,17.90
2022-12-23T09:50:23.694Z,17.80
2022-12-23T09:55:42.978Z,18.20
2022-12-23T09:58:26.965Z,17.98
2022-12-23T10:01:10.931Z,18.00
2022-12-23T10:04:05.162Z,17.73
2022-12-23T10:06:34.495Z,16.38
2022-12-23T10:09:11.831Z,17.65
2022-12-23T10:11:43.952Z,18.75
2022-12-23T10:14:32.200Z,19.65
2022-12-23T10:17:05.475Z,17.85
2022-12-23T10:19:44.286Z,18.55
2022-12-23T10:22:25.348Z,19.33
2022-12-23T10:24:55.618Z,19.65
2022-12-23T10:27:37.178Z,18.73
2022-12-23T10:30:34.224Z,20.08
2022-12-23T10:33:09.663Z,17.67
2022-12-23T10:35:42.861Z,18.88
2022-12-23T10:38:27.900Z,19.42
2022-12-23T10:41:06.958Z,18.00
2022-12-23T10:44:15.084Z,20.02
2022-12-23T10:46:52.092Z,17.27
2022-12-23T10:49:48.976Z,19.00
2022-12-23T10:52:21.660Z,18.52
2022-12-23T10:54:49.536Z,18.83
2022-12-23T10:57:19.250Z,19.35
2022-12-23T11:02:13.754Z,16.85
2022-12-23T11:04:47.264Z,17.48
2022-12-23T11:07:44.139Z,16.67
2022-12-23T11:10:20.941Z,18.88
2022-12-23T11:13:03.464Z,18.65
2022-12-23T11:15:34.578Z,19.23
2022-12-23T11:18:21.945Z,16.65
2022-12-23T11:21:05.789Z,18.30
2022-12-23T11:23:38.497Z,17.02
2022-12-23T11:26:07.803Z,19.20
2022-12-23T11:28:38.470Z,19.20
2022-12-23T11:31:09.959Z,17.48
2022-12-23T11:33:49.114Z,16.08
2022-12-23T11:36:24.280Z,17.95
2022-12-23T11:38:58.920Z,17.40
2022-12-23T11:41:35.283Z,16.65
2022-12-23T11:44:09.874Z,16.23
2022-12-23T11:46:37.431Z,17.73
2022-12-23T11:49:24.134Z,17.17
2022-12-23T11:52:13.247Z,17.63
2022-12-23T11:54:40.552Z,17.00
2022-12-23T11:57:19.154Z,16.52
2022-12-23T11:59:49.937Z,18.42
2022-12-23T12:02:47.868Z,17.92
2022-12-23T12:05:23.032Z,17.80
2022-12-23T12:07:52.653Z,17.05
2022-12-23T12:12:58.229Z,16.45
2022-12-23T12:15:31.329Z,18.27
2022-12-23T12:18:02.360Z,16.20
2022-12-23T12:20:41.701Z,17.40
2022-12-23T12:23:32.878Z,15.73
2022-12-23T12:26:06.224Z,17.63
2022-12-23T12:28:39.053Z,18.80
2022-12-23T12:31:30.330Z,17.98
2022-12-23T12:34:05.908Z,18.90
2022-12-23T12:36:41.624Z,19.67
2022-12-23T12:39:20.140Z,19.30
2022-12-23T12:42:01.776Z,16.55
2022-12-23T12:45:00.884Z,18.20
2022-12-23T12:50:41.330Z,16.73
2022-12-23T12:53:18.750Z,17.27
2022-12-23T12:55:57.437Z,18.45
2022-12-23T12:58:25.176Z,17.90
2022-12-23T13:00:59.788Z,18.02
2022-12-23T13:03:45.408Z,18.52
2022-12-23T13:06:44.566Z,16.88
2022-12-23T13:09:47.160Z,18.95
2022-12-23T13:12:22.398Z,18.65
2022-12-23T13:15:07.637Z,18.75
2022-12-23T13:17:50.992Z,17.65
2022-12-23T13:20:46.744Z,20.20
2022-12-23T13:23:43.404Z,19.25
2022-12-23T13:26:24.045Z,22.48
2022-12-23T13:29:21.472Z,24.70
2022-12-23T13:32:12.682Z,22.15
2022-12-23T13:35:18.888Z,21.13
2022-12-23T13:37:52.182Z,21.65
2022-12-23T13:40:29.045Z,21.58
2022-12-23T13:43:14.887Z,17.48
2022-12-23T13:48:36.862Z,18.15
2022-12-23T13:51:14.336Z,22.00
2022-12-23T13:53:50.712Z,21.25
2022-12-23T13:56:43.666Z,25.35
2022-12-23T13:59:13.141Z,23.50
2022-12-23T14:04:34.822Z,22.88
2022-12-23T14:07:05.642Z,21.67
2022-12-23T14:09:41.224Z,23.23
2022-12-23T14:12:17.539Z,36.35
2022-12-23T14:15:03.782Z,39.53
2022-12-23T14:17:52.202Z,33.13
2022-12-23T14:22:57.850Z,23.05
2022-12-23T14:25:51.737Z,23.42
2022-12-23T14:28:31.822Z,23.55
2022-12-23T14:31:03.165Z,23.02
2022-12-23T14:33:36.309Z,21.98
2022-12-23T14:36:25.368Z,22.10
2022-12-23T14:39:12.929Z,19.85
2022-12-23T14:41:58.705Z,21.02
2022-12-23T14:44:39.029Z,22.00
2022-12-23T14:47:34.062Z,24.08
2022-12-23T14:50:40.493Z,24.83
2022-12-23T14:53:21.978Z,23.75
2022-12-23T14:56:11.817Z,23.73
2022-12-23T14:58:51.283Z,22.50
2022-12-23T15:01:37.561Z,25.08
2022-12-23T15:04:13.377Z,25.23
2022-12-23T15:06:44.629Z,24.38
2022-12-23T15:09:33.380Z,22.58
2022-12-23T15:12:15.146Z,23.30
2022-12-23T15:14:55.071Z,24.75
2022-12-23T15:17:35.484Z,22.40
2022-12-23T15:20:15.857Z,21.98
2022-12-23T15:22:44.853Z,24.90
2022-12-23T15:28:03.760Z,26.98
2022-12-23T15:30:35.603Z,25.30
2022-12-23T15:33:34.780Z,24.52
2022-12-23T15:35:57.330Z,24.38
2022-12-23T15:38:29.470Z,30.90
2022-12-23T15:41:00.277Z,34.03
2022-12-23T15:43:27.383Z,30.95
2022-12-23T15:45:55.034Z,33.92
2022-12-23T15:48:30.632Z,27.85
2022-12-23T15:51:04.083Z,29.88
2022-12-23T15:56:28.249Z,32.65
2022-12-23T15:58:58.947Z,30.15
2022-12-23T16:01:26.819Z,28.48
2022-12-23T16:06:52.883Z,29.33
2022-12-23T16:09:19.900Z,33.78
2022-12-23T16:11:58.408Z,36.00
2022-12-23T16:14:28.196Z,31.65
2022-12-23T16:17:00.093Z,31.83
2022-12-23T16:20:08.077Z,27.48
2022-12-23T16:25:25.730Z,27.40
2022-12-23T16:28:12.717Z,29.27
2022-12-23T16:34:07.846Z,31.23
2022-12-23T16:36:38.078Z,33.05
2022-12-23T16:39:19.080Z,33.95
2022-12-23T16:41:46.581Z,34.35
2022-12-23T16:47:17.188Z,33.33
2022-12-23T16:49:45.170Z,33.67
2022-12-23T16:52:14.735Z,33.15
2022-12-23T16:54:51.049Z,36.40
2022-12-23T16:57:18.163Z,33.67
2022-12-23T16:59:47.115Z,34.72
2022-12-23T17:02:24.410Z,35.88
2022-12-23T17:04:54.477Z,34.05
2022-12-23T17:09:52.070Z,36.55
2022-12-23T17:12:19.383Z,34.67
2022-12-23T17:14:55.833Z,33.35
2022-12-23T17:17:27.014Z,32.22
2022-12-23T17:19:56.410Z,31.98
2022-12-23T17:22:25.994Z,30.60
2022-12-23T17:25:08.489Z,29.38
2022-12-23T17:27:46.390Z,30.30
2022-12-23T17:30:21.001Z,37.20
2022-12-23T17:32:55.758Z,30.83
2022-12-23T17:35:23.604Z,44.50
2022-12-23T17:37:52.999Z,44.65
2022-12-23T17:40:21.597Z,41.53
2022-12-23T17:42:51.993Z,40.47
2022-12-23T17:45:25.997Z,40.15
2022-12-23T17:47:55.959Z,38.53
2022-12-23T17:50:28.352Z,41.65
2022-12-23T17:52:58.126Z,40.83
2022-12-23T17:55:36.572Z,41.50
2022-12-23T17:58:06.846Z,38.55
2022-12-23T18:00:34.697Z,37.97
2022-12-23T18:03:03.808Z,40.60
2022-12-23T18:05:34.198Z,40.38
2022-12-23T18:08:02.989Z,37.55
2022-12-23T18:10:36.758Z,34.45
2022-12-23T18:13:10.065Z,28.65
2022-12-23T18:15:39.841Z,28.80
2022-12-23T18:18:28.582Z,31.52
2022-12-23T18:21:00.623Z,29.88
2022-12-23T18:23:30.965Z,33.10
2022-12-23T18:25:59.968Z,36.42
2022-12-23T18:28:33.486Z,40.22
2022-12-23T18:31:02.471Z,41.58
2022-12-23T18:36:27.303Z,41.10
2022-12-23T18:38:55.164Z,34.88
2022-12-23T18:41:23.108Z,34.63
2022-12-23T18:43:51.736Z,35.00
2022-12-23T18:46:20.332Z,34.15
2022-12-23T18:48:51.702Z,31.98
2022-12-23T18:51:23.738Z,29.65
2022-12-23T18:53:55.821Z,39.53
2022-12-23T18:56:24.165Z,34.22
2022-12-23T18:58:54.369Z,38.05
2022-12-23T19:01:21.612Z,34.65
2022-12-23T19:03:49.189Z,39.35
2022-12-23T19:06:17.552Z,42.80
2022-12-23T19:08:45.214Z,41.50
2022-12-23T19:11:15.859Z,43.65
2022-12-23T19:13:46.889Z,40.55
2022-12-23T19:16:20.204Z,39.83
2022-12-23T19:18:49.123Z,41.67
2022-12-23T19:21:22.000Z,40.72
2022-12-23T19:23:49.519Z,38.15
2022-12-23T19:26:19.371Z,40.90
2022-12-23T19:28:48.794Z,41.80
2022-12-23T19:31:17.843Z,40.83
2022-12-23T19:36:23.577Z,39.03
2022-12-23T19:38:51.315Z,38.35
2022-12-23T19:41:20.455Z,37.15
2022-12-23T19:43:51.887Z,36.88
2022-12-23T19:46:21.491Z,39.22
2022-12-23T19:48:52.578Z,37.45
2022-12-23T19:51:40.287Z,37.03
2022-12-23T19:54:16.576Z,33.13
2022-12-23T19:56:44.110Z,32.88
2022-12-23T19:59:12.024Z,36.13
2022-12-23T20:01:39.747Z,35.90
2022-12-23T20:04:07.796Z,35.10
2022-12-23T20:06:38.428Z,31.23
2022-12-23T20:09:08.483Z,31.98
2022-12-23T20:11:41.638Z,30.25
2022-12-23T20:14:10.327Z,29.25
2022-12-23T20:16:40.585Z,33.92
2022-12-23T20:19:11.095Z,29.95
2022-12-23T20:21:38.307Z,31.15
2022-12-23T20:24:07.777Z,28.10
2022-12-23T20:26:36.062Z,35.58
2022-12-23T20:29:04.059Z,33.63
2022-12-23T20:31:33.456Z,34.45
2022-12-23T20:34:04.132Z,32.95
2022-12-23T20:36:33.682Z,30.88
2022-12-23T20:39:06.639Z,28.67
2022-12-23T20:41:33.897Z,30.77
2022-12-23T20:44:33.869Z,30.45
2022-12-23T20:46:50.305Z,36.55
2022-12-23T20:49:19.023Z,51.47
2022-12-23T20:51:46.135Z,44.97
2022-12-23T20:54:17.915Z,42.70
2022-12-23T20:56:45.050Z,37.17
2022-12-23T20:59:12.724Z,53.65
2022-12-23T21:01:41.501Z,53.78
2022-12-23T21:04:12.869Z,43.33
2022-12-23T21:06:40.499Z,46.83
2022-12-23T21:09:14.076Z,35.03
2022-12-23T21:11:44.117Z,36.20
2022-12-23T21:14:12.294Z,32.20
2022-12-23T21:16:45.230Z,61.60
2022-12-23T21:19:18.549Z,40.88
2022-12-23T21:21:49.317Z,38.03
2022-12-23T21:24:18.047Z,35.80
2022-12-23T21:26:50.291Z,41.30
2022-12-23T21:29:21.586Z,44.30
2022-12-23T21:31:48.793Z,46.17
2022-12-23T21:34:16.380Z,37.83
2022-12-23T21:36:51.176Z,35.08
2022-12-23T21:39:20.223Z,37.97
2022-12-23T21:41:51.159Z,42.20
2022-12-23T21:44:18.895Z,29.73
2022-12-23T21:46:46.116Z,43.58
2022-12-23T21:49:13.619Z,42.60
2022-12-23T21:51:41.720Z,36.67
2022-12-23T21:54:11.559Z,48.55
2022-12-23T21:56:39.848Z,43.67
2022-12-23T21:59:12.058Z,57.40
2022-12-23T22:01:39.166Z,64.10
2022-12-23T22:04:07.893Z,37.75
2022-12-23T22:06:39.043Z,32.80
2022-12-23T22:09:08.899Z,32.53
2022-12-23T22:11:40.740Z,35.30
2022-12-23T22:14:12.027Z,37.33
2022-12-23T22:16:39.735Z,30.75
2022-12-23T22:19:08.896Z,37.72
2022-12-23T22:21:37.874Z,42.05
2022-12-23T22:24:08.821Z,40.03
2022-12-23T22:26:36.381Z,50.33
2022-12-23T22:29:06.191Z,43.40
2022-12-23T22:31:49.555Z,42.47
2022-12-23T22:34:20.940Z,35.55
2022-12-23T22:36:49.711Z,40.58
2022-12-23T22:39:21.617Z,39.28
2022-12-23T22:41:50.902Z,43.70
2022-12-23T22:44:19.098Z,40.33
2022-12-23T22:46:46.768Z,43.90
2022-12-23T22:49:16.448Z,42.55
2022-12-23T22:51:43.822Z,44.03
2022-12-23T22:54:12.647Z,45.53
2022-12-23T22:56:39.670Z,43.28
2022-12-23T22:59:07.316Z,43.65
2022-12-23T23:01:36.704Z,43.95
2022-12-23T23:04:08.675Z,42.15
2022-12-23T23:06:38.527Z,44.40
2022-12-23T23:09:08.297Z,42.97
2022-12-23T23:11:35.988Z,44.80
2022-12-23T23:14:04.431Z,41.83
2022-12-23T23:16:34.538Z,40.65
2022-12-23T23:19:04.600Z,38.63
2022-12-23T23:23:58.819Z,40.80
2022-12-23T23:26:27.544Z,35.88
2022-12-23T23:28:56.075Z,39.83
2022-12-23T23:34:11.629Z,38.10
2022-12-23T23:36:38.878Z,38.47
2022-12-23T23:39:06.737Z,37.55
2022-12-23T23:41:36.242Z,41.72
2022-12-23T23:44:04.511Z,41.83
2022-12-23T23:46:31.992Z,41.85
2022-12-23T23:48:59.513Z,37.90
2022-12-23T23:51:26.690Z,40.58
2022-12-23T23:53:54.082Z,35.58
2022-12-23T23:56:25.789Z,38.75
2022-12-23T23:58:54.256Z,38.30
